CheckWX is a tool to help pilots better visualize weather data.  It is not intended as a substitute for an official pre-flight weather briefing.

12:25:34 UTC

KCOU METAR
Columbia Regional Airport
Columbia, Missouri, USA
Current

32 mins ago

KCOU 221154Z AUTO 07012KT 9SM CLR M01/M05 A3026 RMK AO2 SLP255 T10111050 10000 21017 58003
Observed
Feb-22 @ 11:54 UTC
Wind
  • 070° at 12 KTS
Visibility
9 SM
Flight Rules
VFR
Cloud Levels
  • Clear skies
Temperature
-1°C / 30°F
Dewpoint
-5°C / 23°F
Humidity
75%
Altimeter
30.26" Hg
Pressure
1025.5 hPa
Previous

2 hours ago

KCOU 221054Z AUTO 07010KT 9SM CLR M01/M05 A3027 RMK AO2 SLP256 T10111050
Observed
Feb-22 @ 10:54 UTC
Wind
  • 070° at 10 KTS
Visibility
9 SM
Flight Rules
VFR
Cloud Levels
  • Clear skies
Temperature
-1°C / 30°F
Dewpoint
-5°C / 23°F
Humidity
75%
Altimeter
30.27" Hg
Pressure
1025.6 hPa
Previous

3 hours ago

KCOU 220954Z AUTO 06006KT 9SM CLR M02/M04 A3028 RMK AO2 SLP261 T10171044
Observed
Feb-22 @ 09:54 UTC
Wind
  • 060° at 6 KTS
Visibility
9 SM
Flight Rules
VFR
Cloud Levels
  • Clear skies
Temperature
-2°C / 28°F
Dewpoint
-4°C / 25°F
Humidity
86%
Altimeter
30.28" Hg
Pressure
1026.1 hPa